createdAt,value
2023-05-09T00:00:47.910Z,16.60
2023-05-09T00:01:50.162Z,16.70
2023-05-09T00:02:54.281Z,16.60
2023-05-09T00:03:56.108Z,16.50
2023-05-09T00:04:58.138Z,16.50
2023-05-09T00:06:00.222Z,16.30
2023-05-09T00:07:01.943Z,16.10
2023-05-09T00:08:03.892Z,15.60
2023-05-09T00:09:05.988Z,15.70
2023-05-09T00:10:08.269Z,15.60
2023-05-09T00:11:10.238Z,15.50
2023-05-09T00:12:12.667Z,15.40
2023-05-09T00:13:14.778Z,15.20
2023-05-09T00:14:18.330Z,15.20
2023-05-09T00:15:20.146Z,15.20
2023-05-09T00:16:26.571Z,15.20
2023-05-09T00:17:28.963Z,15.00
2023-05-09T00:18:31.503Z,15.00
2023-05-09T00:19:33.902Z,14.90
2023-05-09T00:20:36.204Z,15.00
2023-05-09T00:21:38.129Z,15.00
2023-05-09T00:22:41.268Z,14.90
2023-05-09T00:23:43.108Z,14.80
2023-05-09T00:24:45.411Z,14.90
2023-05-09T00:25:47.265Z,14.80
2023-05-09T00:26:49.118Z,14.90
2023-05-09T00:27:51.259Z,14.90
2023-05-09T00:28:53.248Z,14.80
2023-05-09T00:29:55.411Z,14.90
2023-05-09T00:30:57.237Z,14.90
2023-05-09T00:31:59.387Z,15.00
2023-05-09T00:33:01.746Z,14.90
2023-05-09T00:34:03.541Z,15.30
2023-05-09T00:35:06.156Z,14.50
2023-05-09T00:36:08.165Z,14.60
2023-05-09T00:37:09.999Z,14.60
2023-05-09T00:38:12.223Z,14.40
2023-05-09T00:39:14.354Z,14.40
2023-05-09T00:40:16.185Z,14.40
2023-05-09T00:41:18.011Z,14.40
2023-05-09T00:42:20.104Z,14.20
2023-05-09T00:43:21.866Z,14.40
2023-05-09T00:44:23.666Z,14.60
2023-05-09T00:45:25.551Z,14.50
2023-05-09T00:46:27.906Z,14.60
2023-05-09T00:47:30.434Z,14.70
2023-05-09T00:48:32.398Z,14.80
2023-05-09T00:49:34.573Z,14.60
2023-05-09T00:50:36.648Z,14.50
2023-05-09T00:51:41.204Z,14.60
2023-05-09T00:52:43.187Z,14.50
2023-05-09T00:53:45.950Z,14.70
2023-05-09T00:54:48.030Z,15.10
2023-05-09T00:55:50.213Z,15.10
2023-05-09T00:56:52.189Z,15.30
2023-05-09T00:57:54.058Z,15.50
2023-05-09T00:58:55.911Z,15.70
2023-05-09T00:59:57.706Z,15.70
2023-05-09T01:01:01.823Z,15.60
2023-05-09T01:02:03.543Z,15.60
2023-05-09T01:03:05.829Z,15.70
2023-05-09T01:04:08.069Z,15.90
2023-05-09T01:05:11.031Z,15.90
2023-05-09T01:07:11.174Z,16.00
2023-05-09T01:08:51.218Z,16.30
2023-05-09T01:10:14.357Z,16.30
2023-05-09T01:11:34.837Z,16.20
2023-05-09T01:13:09.539Z,16.20
2023-05-09T01:14:44.269Z,16.30
2023-05-09T01:16:08.800Z,16.40
2023-05-09T01:17:14.733Z,16.30
2023-05-09T01:18:42.781Z,16.30
2023-05-09T01:20:22.688Z,16.20
2023-05-09T01:21:29.506Z,16.30
2023-05-09T01:22:35.955Z,16.10
2023-05-09T01:24:11.283Z,16.00
2023-05-09T01:25:33.521Z,16.30
2023-05-09T01:26:47.132Z,16.30
2023-05-09T01:27:57.874Z,16.60
2023-05-09T01:29:23.830Z,16.30
2023-05-09T01:30:27.587Z,16.10
2023-05-09T01:31:30.561Z,16.20
2023-05-09T01:32:36.740Z,16.20
2023-05-09T01:33:41.138Z,16.30
2023-05-09T01:34:45.239Z,16.30
2023-05-09T01:35:52.831Z,16.30
2023-05-09T01:36:59.857Z,16.30
2023-05-09T01:38:04.593Z,16.10
2023-05-09T01:39:07.440Z,15.90
2023-05-09T01:40:18.028Z,15.90
2023-05-09T01:41:22.612Z,15.90
2023-05-09T01:42:27.577Z,16.00
2023-05-09T01:43:31.188Z,16.00
2023-05-09T01:44:38.229Z,16.20
2023-05-09T01:45:41.508Z,16.50
2023-05-09T01:46:44.447Z,16.50
2023-05-09T01:47:49.045Z,16.30
2023-05-09T01:48:52.317Z,16.40
2023-05-09T01:49:55.221Z,16.20
2023-05-09T01:50:58.747Z,16.20
2023-05-09T01:52:04.024Z,15.80
2023-05-09T01:53:06.762Z,15.70
2023-05-09T01:54:10.361Z,15.80
2023-05-09T01:55:13.447Z,15.60
2023-05-09T01:56:16.698Z,15.50
2023-05-09T01:57:19.545Z,15.20
2023-05-09T01:58:22.502Z,15.40
2023-05-09T01:59:25.446Z,15.30
2023-05-09T02:00:27.932Z,15.00
2023-05-09T02:01:30.906Z,14.70
2023-05-09T02:02:33.737Z,14.50
2023-05-09T02:03:38.033Z,14.60
2023-05-09T02:04:42.494Z,14.80
2023-05-09T02:05:45.738Z,14.30
2023-05-09T02:06:51.378Z,14.60
2023-05-09T02:07:57.229Z,14.40
2023-05-09T02:08:59.910Z,14.20
2023-05-09T02:10:03.185Z,13.90
2023-05-09T02:11:04.940Z,13.90
2023-05-09T02:12:07.312Z,13.80
2023-05-09T02:13:09.124Z,13.90
2023-05-09T02:14:11.157Z,14.10
2023-05-09T02:15:13.460Z,14.10
2023-05-09T02:16:16.277Z,14.30
2023-05-09T02:17:21.568Z,14.50
2023-05-09T02:18:23.516Z,14.50
2023-05-09T02:19:25.277Z,14.70
2023-05-09T02:20:27.323Z,14.70
2023-05-09T02:21:29.380Z,14.70
2023-05-09T02:22:31.528Z,14.60
2023-05-09T02:23:33.419Z,14.10
2023-05-09T02:24:36.169Z,14.40
2023-05-09T02:25:39.195Z,13.80
2023-05-09T02:26:41.402Z,13.70
2023-05-09T02:27:45.635Z,13.70
2023-05-09T02:28:48.430Z,13.70
2023-05-09T02:29:54.432Z,13.70
2023-05-09T02:30:58.891Z,13.70
2023-05-09T02:32:03.118Z,13.30
2023-05-09T02:33:07.644Z,12.90
2023-05-09T02:34:10.954Z,12.90
2023-05-09T02:35:15.163Z,12.50
2023-05-09T02:36:18.144Z,12.40
2023-05-09T02:37:21.726Z,12.20
2023-05-09T02:38:24.412Z,12.20
2023-05-09T02:39:26.578Z,12.20
2023-05-09T02:40:30.311Z,12.10
2023-05-09T02:41:32.164Z,12.20
2023-05-09T02:42:34.029Z,12.30
2023-05-09T02:43:35.728Z,12.70
2023-05-09T02:44:39.037Z,12.80
2023-05-09T02:45:41.399Z,12.90
2023-05-09T02:46:43.116Z,12.60
2023-05-09T02:47:44.956Z,12.60
2023-05-09T02:48:46.767Z,12.70
2023-05-09T02:49:49.156Z,12.70
2023-05-09T02:50:50.910Z,13.10
2023-05-09T02:51:52.901Z,13.60
2023-05-09T02:52:54.735Z,13.20
2023-05-09T02:53:56.861Z,13.30
2023-05-09T02:54:59.044Z,13.20
2023-05-09T02:56:01.136Z,13.40
2023-05-09T02:57:03.205Z,13.30
2023-05-09T02:58:13.667Z,13.60
2023-05-09T02:59:18.359Z,13.60
2023-05-09T03:00:21.646Z,13.70
2023-05-09T03:01:24.116Z,13.60
2023-05-09T03:02:26.500Z,13.60
2023-05-09T03:03:28.942Z,13.00
2023-05-09T03:04:31.069Z,12.90
2023-05-09T03:05:33.119Z,12.50
2023-05-09T03:06:34.836Z,12.70
2023-05-09T03:07:36.965Z,12.90
2023-05-09T03:08:38.886Z,12.80
2023-05-09T03:09:41.318Z,12.50
2023-05-09T03:10:43.321Z,12.50
2023-05-09T03:11:45.044Z,12.60
2023-05-09T03:12:47.092Z,12.50
2023-05-09T03:13:49.169Z,12.50
2023-05-09T03:14:50.913Z,12.80
2023-05-09T03:15:52.834Z,12.70
2023-05-09T03:16:58.705Z,12.40
2023-05-09T03:18:00.513Z,12.50
2023-05-09T03:19:02.961Z,12.90
2023-05-09T03:20:05.756Z,12.70
2023-05-09T03:21:07.501Z,12.60
2023-05-09T03:22:09.428Z,12.90
2023-05-09T03:23:11.313Z,13.10
2023-05-09T03:24:13.340Z,13.40
2023-05-09T03:25:15.488Z,13.40
2023-05-09T03:26:17.484Z,13.40
2023-05-09T03:27:20.297Z,13.40
2023-05-09T03:28:22.152Z,13.40
2023-05-09T03:29:24.190Z,13.40
2023-05-09T03:30:27.272Z,13.40
2023-05-09T03:31:29.129Z,12.90
2023-05-09T03:32:31.057Z,12.90
2023-05-09T03:33:32.857Z,12.80
2023-05-09T03:34:34.669Z,13.10
2023-05-09T03:35:36.360Z,13.00
2023-05-09T03:36:38.249Z,12.90
2023-05-09T03:37:40.005Z,13.10
2023-05-09T03:38:41.738Z,13.20
2023-05-09T03:39:43.783Z,13.30
2023-05-09T03:40:45.735Z,13.30
2023-05-09T03:41:47.838Z,13.30
2023-05-09T03:42:49.514Z,13.40
2023-05-09T03:43:51.354Z,13.30
2023-05-09T03:44:53.086Z,13.30
2023-05-09T03:45:55.229Z,13.30
2023-05-09T03:46:56.946Z,13.30
2023-05-09T03:47:59.165Z,13.30
2023-05-09T03:49:01.115Z,13.30
2023-05-09T03:50:02.977Z,13.30
2023-05-09T03:51:05.084Z,13.30
2023-05-09T03:52:06.888Z,13.30
2023-05-09T03:53:08.772Z,13.30
2023-05-09T03:54:10.629Z,13.30
2023-05-09T03:55:13.030Z,13.30
2023-05-09T03:56:15.285Z,13.30
2023-05-09T03:57:17.121Z,13.30
2023-05-09T03:58:19.494Z,13.30
2023-05-09T03:59:21.530Z,13.30
2023-05-09T04:00:24.019Z,13.30
2023-05-09T04:01:25.908Z,13.30
2023-05-09T04:02:27.834Z,13.30
2023-05-09T04:03:30.078Z,13.20
2023-05-09T04:04:31.837Z,13.30
2023-05-09T04:05:34.071Z,13.30
2023-05-09T04:06:36.403Z,13.30
2023-05-09T04:07:38.475Z,13.30
2023-05-09T04:08:40.341Z,13.30
2023-05-09T04:09:42.935Z,13.30
2023-05-09T04:10:45.055Z,13.40
2023-05-09T04:11:46.779Z,12.90
2023-05-09T04:12:48.747Z,12.90
2023-05-09T04:13:50.638Z,12.70
2023-05-09T04:14:52.405Z,13.30
2023-05-09T04:15:54.161Z,12.90
2023-05-09T04:16:56.094Z,12.60
2023-05-09T04:17:58.221Z,12.60
2023-05-09T04:19:00.250Z,12.70
2023-05-09T04:20:02.272Z,12.70
2023-05-09T04:21:04.164Z,12.60
2023-05-09T04:22:06.010Z,12.70
2023-05-09T04:23:08.133Z,12.40
2023-05-09T04:24:09.884Z,12.30
2023-05-09T04:25:12.729Z,12.60
2023-05-09T04:26:15.930Z,12.40
2023-05-09T04:27:17.684Z,12.40
2023-05-09T04:28:19.524Z,12.50
2023-05-09T04:29:21.366Z,12.80
2023-05-09T04:30:24.447Z,12.60
2023-05-09T04:31:26.891Z,12.40
2023-05-09T04:32:28.627Z,12.50
2023-05-09T04:33:31.023Z,12.50
2023-05-09T04:34:33.647Z,12.40
2023-05-09T04:35:35.701Z,12.40
2023-05-09T04:36:37.416Z,12.40
2023-05-09T04:37:39.236Z,12.50
2023-05-09T04:38:41.069Z,12.60
2023-05-09T04:39:42.941Z,12.40
2023-05-09T04:40:44.725Z,12.40
2023-05-09T04:41:48.153Z,12.40
2023-05-09T04:42:49.974Z,12.00
2023-05-09T04:43:52.658Z,12.10
2023-05-09T04:44:54.698Z,12.30
2023-05-09T04:45:56.778Z,12.50
2023-05-09T04:46:59.082Z,12.60
2023-05-09T04:48:00.957Z,12.50
2023-05-09T04:49:03.116Z,12.10
2023-05-09T04:50:05.652Z,11.90
2023-05-09T04:51:07.884Z,12.00
2023-05-09T04:52:09.619Z,11.90
2023-05-09T04:53:13.476Z,11.90
2023-05-09T04:54:15.188Z,11.70
2023-05-09T04:55:17.072Z,11.60
2023-05-09T04:56:19.091Z,11.50
2023-05-09T04:57:20.951Z,11.50
2023-05-09T04:58:23.064Z,11.60
2023-05-09T04:59:25.112Z,11.20
2023-05-09T05:00:26.862Z,11.40
2023-05-09T05:01:28.571Z,11.60
2023-05-09T05:02:31.800Z,12.10
2023-05-09T05:03:33.986Z,11.30
2023-05-09T05:04:36.379Z,11.50
2023-05-09T05:05:38.660Z,11.20
2023-05-09T05:06:40.642Z,11.30
2023-05-09T05:07:42.488Z,11.70
2023-05-09T05:08:45.169Z,11.40
2023-05-09T05:09:47.152Z,11.70
2023-05-09T05:10:49.751Z,11.90
2023-05-09T05:12:00.648Z,11.90
2023-05-09T05:13:03.790Z,11.60
2023-05-09T05:14:05.827Z,11.40
2023-05-09T05:15:08.105Z,11.40
2023-05-09T05:16:11.605Z,11.00
2023-05-09T05:17:14.149Z,10.80
2023-05-09T05:18:16.037Z,11.00
2023-05-09T05:19:18.622Z,11.20
2023-05-09T05:20:21.206Z,10.90
2023-05-09T05:21:22.942Z,11.10
2023-05-09T05:22:24.816Z,11.30
2023-05-09T05:23:29.370Z,11.40
2023-05-09T05:24:31.179Z,11.00
2023-05-09T05:25:32.908Z,10.80
2023-05-09T05:26:34.576Z,11.00
2023-05-09T05:27:36.482Z,10.90
2023-05-09T05:28:38.494Z,10.60
2023-05-09T05:29:40.243Z,10.90
2023-05-09T05:30:42.257Z,10.70
2023-05-09T05:31:44.054Z,10.90
2023-05-09T05:32:45.817Z,10.20
2023-05-09T05:33:47.809Z,9.90
2023-05-09T05:34:49.849Z,9.50
2023-05-09T05:35:52.016Z,9.10
2023-05-09T05:36:53.701Z,9.10
2023-05-09T05:37:55.942Z,8.80
2023-05-09T05:38:57.772Z,8.50
2023-05-09T05:39:59.659Z,8.70
2023-05-09T05:41:01.449Z,8.70
2023-05-09T05:42:03.719Z,8.90
2023-05-09T05:43:05.458Z,9.00
2023-05-09T05:44:07.175Z,9.30
2023-05-09T05:45:09.438Z,9.40
2023-05-09T05:46:11.208Z,9.50
2023-05-09T05:47:13.032Z,9.80
2023-05-09T05:48:15.419Z,9.90
2023-05-09T05:49:17.250Z,9.50
2023-05-09T05:50:19.077Z,9.20
2023-05-09T05:51:21.045Z,9.10
2023-05-09T05:52:22.914Z,8.90
2023-05-09T05:53:24.761Z,8.90
2023-05-09T05:54:26.814Z,8.30
2023-05-09T05:55:28.611Z,8.20
2023-05-09T05:56:31.057Z,8.40
2023-05-09T05:57:33.514Z,7.80
2023-05-09T05:58:35.641Z,7.60
2023-05-09T05:59:37.466Z,7.20
2023-05-09T06:00:40.024Z,7.00
2023-05-09T06:01:41.833Z,7.20
2023-05-09T06:02:44.695Z,7.40
2023-05-09T06:03:49.889Z,6.60
2023-05-09T06:04:53.292Z,6.80
2023-05-09T06:05:56.548Z,7.00
2023-05-09T06:06:58.873Z,7.30
2023-05-09T06:08:00.901Z,7.50
2023-05-09T06:09:02.932Z,7.50
2023-05-09T06:10:05.244Z,7.50
2023-05-09T06:11:07.883Z,6.90
2023-05-09T06:12:09.719Z,6.20
2023-05-09T06:13:11.625Z,6.10
2023-05-09T06:14:13.717Z,6.10
2023-05-09T06:15:15.988Z,6.20
2023-05-09T06:16:20.399Z,6.70
2023-05-09T06:17:24.623Z,7.00
2023-05-09T06:18:26.805Z,6.70
2023-05-09T06:19:28.780Z,6.40
2023-05-09T06:20:30.534Z,6.50
2023-05-09T06:21:35.139Z,5.30
2023-05-09T06:22:36.917Z,4.90
2023-05-09T06:23:44.662Z,4.50
2023-05-09T06:24:53.041Z,4.00
2023-05-09T06:25:54.732Z,3.50
2023-05-09T06:26:56.515Z,3.20
2023-05-09T06:27:58.226Z,1.00
2023-05-09T06:29:00.316Z,1.00
2023-05-09T06:30:08.346Z,1.10
2023-05-09T06:31:16.371Z,1.00
2023-05-09T06:32:21.715Z,1.00
2023-05-09T06:33:23.408Z,1.00
2023-05-09T06:34:25.306Z,1.00
2023-05-09T06:35:27.128Z,1.00
2023-05-09T06:36:28.924Z,1.00
2023-05-09T06:37:33.996Z,1.00
2023-05-09T06:38:35.878Z,1.00
2023-05-09T06:39:37.730Z,1.00
2023-05-09T06:40:39.535Z,1.00
2023-05-09T06:41:41.319Z,1.00
2023-05-09T06:42:43.070Z,1.00
2023-05-09T06:43:44.853Z,1.00
2023-05-09T06:44:46.945Z,1.00
2023-05-09T06:45:49.099Z,1.00
2023-05-09T06:46:51.268Z,1.00
2023-05-09T06:47:53.236Z,1.00
2023-05-09T06:48:55.256Z,1.00
2023-05-09T06:49:56.960Z,1.00
2023-05-09T06:50:58.696Z,1.00
2023-05-09T06:52:00.468Z,1.00
2023-05-09T06:53:02.207Z,1.00
2023-05-09T06:54:04.323Z,1.00
2023-05-09T06:55:07.044Z,1.00
2023-05-09T06:56:08.758Z,1.00
2023-05-09T06:57:10.660Z,1.00
2023-05-09T06:58:12.420Z,1.00
2023-05-09T06:59:17.383Z,1.00
2023-05-09T07:00:19.511Z,1.00
2023-05-09T07:01:21.454Z,1.00
2023-05-09T07:02:23.609Z,1.00
2023-05-09T07:03:26.087Z,1.00
2023-05-09T07:04:28.407Z,1.00
2023-05-09T07:05:30.314Z,1.00
2023-05-09T07:06:32.051Z,1.00
2023-05-09T07:07:35.930Z,1.00
2023-05-09T07:08:37.739Z,1.00
2023-05-09T07:09:39.408Z,1.00
2023-05-09T07:10:41.163Z,1.00
2023-05-09T07:11:43.263Z,1.00
2023-05-09T07:12:45.082Z,1.00
2023-05-09T07:13:46.777Z,1.00
2023-05-09T07:14:48.500Z,1.00
2023-05-09T07:15:50.528Z,1.00
2023-05-09T07:16:56.474Z,1.00
2023-05-09T07:18:02.024Z,1.00
2023-05-09T07:19:04.297Z,1.00
2023-05-09T07:20:07.187Z,1.00
2023-05-09T07:21:09.048Z,1.00
2023-05-09T07:22:10.982Z,1.00
2023-05-09T07:23:14.370Z,1.00
2023-05-09T07:24:16.796Z,1.00
2023-05-09T07:25:18.939Z,1.00
2023-05-09T07:26:21.342Z,1.00
2023-05-09T07:27:23.147Z,1.00
2023-05-09T07:28:28.534Z,1.00
2023-05-09T07:29:36.003Z,1.00
2023-05-09T07:30:40.566Z,1.00
2023-05-09T07:31:44.443Z,1.00
2023-05-09T07:32:46.965Z,1.00
2023-05-09T07:33:50.875Z,1.00
2023-05-09T07:34:53.385Z,1.00
2023-05-09T07:35:55.183Z,1.00
2023-05-09T07:36:58.850Z,1.00
2023-05-09T07:38:00.658Z,1.00
2023-05-09T07:39:02.579Z,1.00
2023-05-09T07:40:06.255Z,1.00
2023-05-09T07:41:08.141Z,1.00
2023-05-09T07:42:09.890Z,1.00
2023-05-09T07:43:11.515Z,1.00
2023-05-09T07:44:13.165Z,1.00
2023-05-09T07:45:15.174Z,1.00
2023-05-09T07:46:16.977Z,1.00
2023-05-09T07:47:18.798Z,1.00
2023-05-09T07:48:20.650Z,1.00
2023-05-09T07:49:23.333Z,1.00
2023-05-09T07:50:28.847Z,1.00
2023-05-09T07:51:30.744Z,1.00
2023-05-09T07:52:32.641Z,1.00
2023-05-09T07:53:34.762Z,1.00
2023-05-09T07:54:37.914Z,1.00
2023-05-09T07:55:39.735Z,1.00
2023-05-09T07:56:41.435Z,1.00
2023-05-09T07:57:43.191Z,1.00
2023-05-09T07:58:46.137Z,1.00
2023-05-09T07:59:47.965Z,1.00
2023-05-09T08:00:49.664Z,1.00
2023-05-09T08:01:53.840Z,1.00
2023-05-09T08:02:55.829Z,1.00
2023-05-09T08:03:57.747Z,1.00
2023-05-09T08:04:59.618Z,1.00
2023-05-09T08:06:01.435Z,1.00
2023-05-09T08:07:06.259Z,1.00
2023-05-09T08:08:08.029Z,1.00
2023-05-09T08:09:10.328Z,1.00
2023-05-09T08:10:12.401Z,1.00
2023-05-09T08:11:14.156Z,1.00
2023-05-09T08:12:16.935Z,1.00
2023-05-09T08:13:19.181Z,1.00
2023-05-09T08:14:23.511Z,1.00
2023-05-09T08:15:25.426Z,1.00
2023-05-09T08:16:27.556Z,1.00
2023-05-09T08:17:29.960Z,1.00
2023-05-09T08:18:31.747Z,1.00
2023-05-09T08:19:33.472Z,1.00
2023-05-09T08:20:36.167Z,1.00
2023-05-09T08:21:39.157Z,1.00
2023-05-09T08:22:41.324Z,1.00
2023-05-09T08:23:43.214Z,1.00
2023-05-09T08:24:46.496Z,1.00
2023-05-09T08:25:48.200Z,1.00
2023-05-09T08:26:50.058Z,1.00
2023-05-09T08:27:53.069Z,1.00
2023-05-09T08:28:55.235Z,1.00
2023-05-09T08:29:56.890Z,1.00
2023-05-09T08:30:58.689Z,1.00
2023-05-09T08:32:01.468Z,1.00
2023-05-09T08:33:03.798Z,1.00
2023-05-09T08:34:05.700Z,1.00
2023-05-09T08:35:08.971Z,1.00
2023-05-09T08:36:11.067Z,1.00
2023-05-09T08:37:15.075Z,1.00
2023-05-09T08:38:17.265Z,1.00
2023-05-09T08:39:19.452Z,1.00
2023-05-09T08:40:21.423Z,1.00
2023-05-09T08:41:28.092Z,1.00
2023-05-09T08:42:32.085Z,1.00
2023-05-09T08:43:34.489Z,1.00
2023-05-09T08:44:36.215Z,1.00
2023-05-09T08:45:58.024Z,1.00
2023-05-09T08:47:02.459Z,1.00
2023-05-09T08:48:04.683Z,1.00
2023-05-09T08:49:07.389Z,1.00
2023-05-09T08:50:12.266Z,1.00
2023-05-09T08:51:16.090Z,1.00
2023-05-09T08:52:18.272Z,1.00
2023-05-09T08:53:21.758Z,1.00
2023-05-09T08:54:24.801Z,1.00
2023-05-09T08:55:27.855Z,1.00
2023-05-09T08:56:32.867Z,1.00
2023-05-09T08:57:37.571Z,1.00
2023-05-09T08:58:40.269Z,1.00
2023-05-09T08:59:43.801Z,1.00
2023-05-09T09:00:46.727Z,1.00
2023-05-09T09:01:49.515Z,1.00
2023-05-09T09:02:53.307Z,1.00
2023-05-09T09:03:55.714Z,1.00
2023-05-09T09:04:57.597Z,1.00
2023-05-09T09:05:59.972Z,1.00
2023-05-09T09:07:05.833Z,1.00
2023-05-09T09:08:08.374Z,1.00
2023-05-09T09:09:12.894Z,1.00
2023-05-09T09:10:15.430Z,1.00
2023-05-09T09:11:18.601Z,1.00
2023-05-09T09:12:25.815Z,1.00
2023-05-09T09:13:28.461Z,1.00
2023-05-09T09:14:32.582Z,1.00
2023-05-09T09:15:43.619Z,1.00
2023-05-09T09:16:50.929Z,1.00
2023-05-09T09:17:56.707Z,1.00
2023-05-09T09:18:59.773Z,1.00
2023-05-09T09:20:05.764Z,1.00
2023-05-09T09:21:12.238Z,1.00
2023-05-09T09:22:18.482Z,1.00
2023-05-09T09:23:24.396Z,1.00
2023-05-09T09:24:26.109Z,1.00
2023-05-09T09:25:27.919Z,1.00
2023-05-09T09:26:32.076Z,1.00
2023-05-09T09:27:34.287Z,1.00
2023-05-09T09:28:36.662Z,1.00
2023-05-09T09:29:41.367Z,1.00
2023-05-09T09:30:51.340Z,1.00
2023-05-09T09:31:56.842Z,1.00
2023-05-09T09:33:01.446Z,1.00
2023-05-09T09:34:03.734Z,1.00
2023-05-09T09:35:07.106Z,1.00
2023-05-09T09:36:09.245Z,1.00
2023-05-09T09:37:24.768Z,1.00
2023-05-09T09:38:26.912Z,1.00
2023-05-09T09:39:28.846Z,1.00
2023-05-09T09:40:30.839Z,1.00
2023-05-09T09:41:37.240Z,1.00
2023-05-09T09:42:45.967Z,1.00
2023-05-09T09:43:47.788Z,1.00
2023-05-09T09:45:19.457Z,1.00
2023-05-09T09:46:21.494Z,1.00
2023-05-09T09:47:33.168Z,1.00
2023-05-09T09:48:35.867Z,1.00
2023-05-09T09:49:37.750Z,1.00
2023-05-09T09:50:39.566Z,1.00
2023-05-09T09:51:41.957Z,1.00
2023-05-09T09:52:44.455Z,1.00
2023-05-09T09:53:47.142Z,1.00
2023-05-09T09:54:49.229Z,1.00
2023-05-09T09:55:52.432Z,1.00
2023-05-09T09:56:55.203Z,1.00
2023-05-09T09:57:57.368Z,1.00
2023-05-09T09:59:10.630Z,1.00
2023-05-09T10:00:14.489Z,1.00
2023-05-09T10:01:16.886Z,1.00
2023-05-09T10:02:24.725Z,1.00
2023-05-09T10:03:47.728Z,1.00
2023-05-09T10:04:49.525Z,1.00
2023-05-09T10:06:02.027Z,1.00
2023-05-09T10:07:06.416Z,1.00
2023-05-09T10:08:09.793Z,1.00
2023-05-09T10:09:11.655Z,1.00
2023-05-09T10:10:13.903Z,1.00
2023-05-09T10:11:18.251Z,1.00
2023-05-09T10:12:20.924Z,1.00
2023-05-09T10:13:22.811Z,1.00
2023-05-09T10:14:26.358Z,1.00
2023-05-09T10:15:38.522Z,1.00
2023-05-09T10:16:52.828Z,1.00
2023-05-09T10:17:58.108Z,1.00
2023-05-09T10:18:59.873Z,1.00
2023-05-09T10:20:06.119Z,1.00
2023-05-09T10:21:09.606Z,1.00
2023-05-09T10:22:13.868Z,1.00
2023-05-09T10:23:17.929Z,1.00
2023-05-09T10:24:57.763Z,1.00
2023-05-09T10:26:15.849Z,1.00
2023-05-09T10:27:21.983Z,1.00
2023-05-09T10:28:31.609Z,1.00
2023-05-09T10:29:36.177Z,1.00
2023-05-09T10:30:56.803Z,1.00
2023-05-09T10:32:00.283Z,1.00
2023-05-09T10:33:09.294Z,1.00
2023-05-09T10:34:13.113Z,1.00
2023-05-09T10:35:17.964Z,1.00
2023-05-09T10:36:21.335Z,1.00
2023-05-09T10:37:23.245Z,1.00
2023-05-09T10:38:25.871Z,1.00
2023-05-09T10:39:28.711Z,1.00
2023-05-09T10:40:35.152Z,1.00
2023-05-09T10:41:39.080Z,1.00
2023-05-09T10:42:43.086Z,1.00
2023-05-09T10:43:45.955Z,1.00
2023-05-09T10:44:48.392Z,1.00
2023-05-09T10:45:50.532Z,1.00
2023-05-09T10:46:54.233Z,1.00
2023-05-09T10:47:57.106Z,1.00
2023-05-09T10:48:59.315Z,1.00
2023-05-09T10:50:01.887Z,1.00
2023-05-09T10:51:04.393Z,1.00
2023-05-09T10:52:06.212Z,1.00
2023-05-09T10:53:11.492Z,1.00
2023-05-09T10:54:30.570Z,1.00
2023-05-09T10:55:51.023Z,1.00
2023-05-09T10:56:52.794Z,1.00
2023-05-09T10:57:55.086Z,1.00
2023-05-09T10:58:57.748Z,1.00
2023-05-09T11:00:00.674Z,1.00
2023-05-09T11:01:04.544Z,1.00
2023-05-09T11:02:12.572Z,1.00
2023-05-09T11:03:15.822Z,1.00
2023-05-09T11:04:17.785Z,1.00
2023-05-09T11:05:20.389Z,1.00
2023-05-09T11:06:50.813Z,1.00
2023-05-09T11:08:22.661Z,1.00
2023-05-09T11:09:33.714Z,1.00
2023-05-09T11:10:43.014Z,1.00
2023-05-09T11:11:58.328Z,1.00
2023-05-09T11:13:00.919Z,1.00
2023-05-09T11:14:02.743Z,1.00
2023-05-09T11:15:10.183Z,1.00
2023-05-09T11:16:12.659Z,1.00
2023-05-09T11:17:26.754Z,1.00
2023-05-09T11:18:33.650Z,1.00
2023-05-09T11:20:01.767Z,1.00
2023-05-09T11:21:10.002Z,1.00
2023-05-09T11:22:29.499Z,1.00
2023-05-09T11:23:33.193Z,1.00
2023-05-09T11:24:38.323Z,1.00
2023-05-09T11:25:40.111Z,1.00
2023-05-09T11:26:48.089Z,1.00
2023-05-09T11:27:50.190Z,1.00
2023-05-09T11:28:53.968Z,1.00
2023-05-09T11:29:59.831Z,1.00
2023-05-09T11:31:19.811Z,1.00
2023-05-09T11:32:31.866Z,1.00
2023-05-09T11:33:37.587Z,1.00
2023-05-09T11:34:43.102Z,1.00
2023-05-09T11:35:45.567Z,1.00
2023-05-09T11:36:48.173Z,1.00
2023-05-09T11:38:06.062Z,1.00
2023-05-09T11:39:09.776Z,1.00
2023-05-09T11:40:13.217Z,1.00
2023-05-09T11:41:15.865Z,1.00
2023-05-09T11:42:18.403Z,1.00
2023-05-09T11:43:20.368Z,1.00
2023-05-09T11:44:22.086Z,1.00
2023-05-09T11:45:28.726Z,1.00
2023-05-09T11:46:30.960Z,1.00
2023-05-09T11:47:36.173Z,1.00
2023-05-09T11:48:39.687Z,1.00
2023-05-09T11:49:45.475Z,1.00
2023-05-09T11:50:48.362Z,1.00
2023-05-09T11:51:50.221Z,1.00
2023-05-09T11:52:52.052Z,1.00
2023-05-09T11:53:54.269Z,1.00
2023-05-09T11:55:00.219Z,1.00
2023-05-09T11:56:05.121Z,1.00
2023-05-09T11:57:07.711Z,1.00
2023-05-09T11:58:09.916Z,1.00
2023-05-09T11:59:14.671Z,1.00
2023-05-09T12:00:18.651Z,1.00
2023-05-09T12:01:20.710Z,1.00
2023-05-09T12:02:22.854Z,1.00
2023-05-09T12:03:25.388Z,1.00
2023-05-09T12:04:30.494Z,1.00
2023-05-09T12:05:32.344Z,1.00
2023-05-09T12:06:34.339Z,1.00
2023-05-09T12:07:38.055Z,1.00
2023-05-09T12:08:39.963Z,1.00
2023-05-09T12:09:43.620Z,1.00
2023-05-09T12:10:46.699Z,1.00
2023-05-09T12:11:54.267Z,1.00
2023-05-09T12:12:57.056Z,1.00
2023-05-09T12:13:58.791Z,1.00
2023-05-09T12:15:07.628Z,1.00
2023-05-09T12:16:11.587Z,1.00
2023-05-09T12:17:14.636Z,1.00
2023-05-09T12:18:18.301Z,1.00
2023-05-09T12:19:20.641Z,1.00
2023-05-09T12:20:22.351Z,1.00
2023-05-09T12:21:24.949Z,1.00
2023-05-09T12:22:27.903Z,1.00
2023-05-09T12:23:35.417Z,1.00
2023-05-09T12:24:37.800Z,1.00
2023-05-09T12:25:40.169Z,1.00
2023-05-09T12:26:41.925Z,1.00
2023-05-09T12:27:43.968Z,1.00
2023-05-09T12:28:46.192Z,1.00
2023-05-09T12:29:48.675Z,1.00
2023-05-09T12:30:51.619Z,1.00
2023-05-09T12:31:56.368Z,1.00
2023-05-09T12:32:58.880Z,1.00
2023-05-09T12:34:01.714Z,1.00
2023-05-09T12:35:04.425Z,1.00
2023-05-09T12:36:12.986Z,1.00
2023-05-09T12:37:17.742Z,1.00
2023-05-09T12:38:23.606Z,1.00
2023-05-09T12:39:26.833Z,1.00
2023-05-09T12:40:29.029Z,1.00
2023-05-09T12:41:41.434Z,1.00
2023-05-09T12:42:46.350Z,1.00
2023-05-09T12:43:49.733Z,1.00
2023-05-09T12:44:52.637Z,1.00
2023-05-09T12:45:54.549Z,1.00
2023-05-09T12:47:02.095Z,1.00
2023-05-09T12:48:06.105Z,1.00
2023-05-09T12:49:23.088Z,1.00
2023-05-09T12:50:32.624Z,1.00
2023-05-09T12:51:34.452Z,1.00
2023-05-09T12:52:50.661Z,1.00
2023-05-09T12:54:04.059Z,1.00
2023-05-09T12:55:07.722Z,1.00
2023-05-09T12:56:15.731Z,1.00
2023-05-09T12:57:24.688Z,1.00
2023-05-09T12:58:30.772Z,1.00
2023-05-09T12:59:33.351Z,1.00
2023-05-09T13:00:43.626Z,1.00
2023-05-09T13:01:45.339Z,1.00
2023-05-09T13:02:50.785Z,1.00
2023-05-09T13:04:00.432Z,1.00
2023-05-09T13:05:22.049Z,1.00
2023-05-09T13:06:24.388Z,1.00
2023-05-09T13:07:26.113Z,1.00
2023-05-09T13:08:29.364Z,1.00
2023-05-09T13:09:31.633Z,1.00
2023-05-09T13:10:33.855Z,1.00
2023-05-09T13:11:37.806Z,1.00
2023-05-09T13:12:40.500Z,1.00
2023-05-09T13:13:42.497Z,1.00
2023-05-09T13:14:44.617Z,1.00
2023-05-09T13:15:47.302Z,1.00
2023-05-09T13:16:49.671Z,1.00
2023-05-09T13:17:53.994Z,1.00
2023-05-09T13:18:56.146Z,1.00
2023-05-09T13:19:57.789Z,1.00
2023-05-09T13:20:59.446Z,1.00
2023-05-09T13:22:02.072Z,1.00
2023-05-09T13:23:03.900Z,1.00
2023-05-09T13:24:06.620Z,1.00
2023-05-09T13:25:10.669Z,1.00
2023-05-09T13:26:12.388Z,1.00
2023-05-09T13:27:14.208Z,1.00
2023-05-09T13:28:16.039Z,1.00
2023-05-09T13:29:17.701Z,1.00
2023-05-09T13:30:19.772Z,1.00
2023-05-09T13:31:23.680Z,1.00
2023-05-09T13:32:25.925Z,1.00
2023-05-09T13:33:27.811Z,1.00
2023-05-09T13:34:29.589Z,1.00
2023-05-09T13:35:31.285Z,1.00
2023-05-09T13:36:33.033Z,1.00
2023-05-09T13:37:35.626Z,1.00
2023-05-09T13:38:41.043Z,1.00
2023-05-09T13:39:43.000Z,1.00
2023-05-09T13:40:44.659Z,1.00
2023-05-09T13:41:46.544Z,1.00
2023-05-09T13:42:48.952Z,1.00
2023-05-09T13:43:51.574Z,1.00
2023-05-09T13:44:53.290Z,1.00
2023-05-09T13:45:55.076Z,1.00
2023-05-09T13:46:58.665Z,1.00
2023-05-09T13:48:00.482Z,1.00
2023-05-09T13:49:02.211Z,1.00
2023-05-09T13:50:05.208Z,1.00
2023-05-09T13:51:07.844Z,1.00
2023-05-09T13:52:09.592Z,1.00
2023-05-09T13:53:11.290Z,1.00
2023-05-09T13:54:14.827Z,1.00
2023-05-09T13:55:16.901Z,1.00
2023-05-09T13:56:18.616Z,1.00
2023-05-09T13:57:21.994Z,1.00
2023-05-09T13:58:23.849Z,1.00
2023-05-09T13:59:25.537Z,1.00
2023-05-09T14:00:27.182Z,1.00
2023-05-09T14:01:37.796Z,1.00